createdAt,value
2023-05-06T00:00:06.723Z,8.35
2023-05-06T00:02:39.653Z,8.35
2023-05-06T00:05:07.790Z,8.30
2023-05-06T00:07:34.916Z,8.27
2023-05-06T00:10:02.297Z,8.23
2023-05-06T00:12:29.599Z,8.22
2023-05-06T00:14:56.645Z,8.22
2023-05-06T00:17:23.681Z,8.21
2023-05-06T00:19:52.596Z,8.20
2023-05-06T00:22:19.749Z,8.18
2023-05-06T00:24:46.785Z,8.12
2023-05-06T00:27:14.090Z,8.07
2023-05-06T00:29:41.704Z,8.08
2023-05-06T00:32:09.098Z,8.08
2023-05-06T00:34:36.324Z,8.08
2023-05-06T00:37:03.303Z,8.03
2023-05-06T00:39:30.353Z,8.02
2023-05-06T00:42:02.352Z,8.02
2023-05-06T00:44:29.888Z,8.01
2023-05-06T00:46:57.481Z,8.00
2023-05-06T00:49:24.528Z,7.98
2023-05-06T00:51:52.303Z,7.96
2023-05-06T00:54:19.352Z,7.92
2023-05-06T00:56:48.472Z,7.89
2023-05-06T00:59:15.717Z,7.86
2023-05-06T01:01:42.938Z,7.84
2023-05-06T01:04:10.122Z,7.83
2023-05-06T01:07:08.638Z,7.81
2023-05-06T01:10:02.343Z,7.73
2023-05-06T01:12:32.506Z,7.68
2023-05-06T01:15:16.564Z,7.64
2023-05-06T01:17:46.876Z,7.60
2023-05-06T01:20:15.464Z,7.55
2023-05-06T01:22:42.571Z,7.53
2023-05-06T01:25:19.443Z,7.50
2023-05-06T01:27:46.694Z,7.45
2023-05-06T01:30:15.276Z,7.43
2023-05-06T01:32:48.342Z,7.41
2023-05-06T01:35:18.207Z,7.35
2023-05-06T01:38:00.356Z,7.30
2023-05-06T01:40:28.278Z,7.31
2023-05-06T01:42:55.134Z,7.34
2023-05-06T01:45:22.290Z,7.36
2023-05-06T01:47:49.469Z,7.34
2023-05-06T01:50:17.063Z,7.31
2023-05-06T01:52:44.099Z,7.25
2023-05-06T01:55:12.520Z,7.16
2023-05-06T01:57:39.970Z,7.10
2023-05-06T02:00:08.105Z,7.07
2023-05-06T02:02:39.561Z,7.04
2023-05-06T02:05:08.213Z,7.02
2023-05-06T02:07:36.234Z,7.00
2023-05-06T02:10:03.465Z,6.97
2023-05-06T02:12:32.958Z,6.92
2023-05-06T02:14:59.925Z,6.92
2023-05-06T02:17:27.129Z,6.97
2023-05-06T02:19:54.130Z,7.01
2023-05-06T02:22:21.146Z,7.01
2023-05-06T02:24:48.203Z,7.01
2023-05-06T02:27:15.352Z,7.01
2023-05-06T02:29:42.826Z,7.04
2023-05-06T02:32:09.974Z,7.09
2023-05-06T02:34:37.197Z,7.12
2023-05-06T02:43:23.443Z,7.26
2023-05-06T02:45:50.651Z,7.33
2023-05-06T02:48:18.080Z,7.57
2023-05-06T02:50:45.410Z,8.06
2023-05-06T02:53:13.503Z,8.62
2023-05-06T02:55:40.569Z,9.15
2023-05-06T02:58:07.893Z,9.63
2023-05-06T03:00:35.205Z,10.01
2023-05-06T03:03:02.420Z,10.28
2023-05-06T03:05:30.056Z,10.46
2023-05-06T03:07:57.112Z,10.42
2023-05-06T03:10:24.098Z,10.15
2023-05-06T03:12:51.380Z,9.92
2023-05-06T03:15:18.860Z,9.68
2023-05-06T03:17:47.855Z,9.37
2023-05-06T03:20:14.923Z,9.16
2023-05-06T03:22:44.445Z,8.99
2023-05-06T03:25:11.800Z,8.82
2023-05-06T03:27:39.927Z,8.66
2023-05-06T03:30:12.864Z,8.51
2023-05-06T03:32:40.322Z,8.43
2023-05-06T03:35:11.696Z,8.44
2023-05-06T03:37:39.163Z,8.47
2023-05-06T03:40:07.715Z,8.49
2023-05-06T03:42:35.661Z,8.45
2023-05-06T03:45:05.189Z,8.43
2023-05-06T03:47:32.823Z,8.46
2023-05-06T03:50:00.997Z,8.48
2023-05-06T03:52:30.202Z,8.51
2023-05-06T03:54:58.216Z,8.56
2023-05-06T03:57:26.221Z,8.62
2023-05-06T03:59:53.362Z,8.69
2023-05-06T04:02:20.888Z,8.77
2023-05-06T04:04:47.994Z,8.87
2023-05-06T04:07:15.179Z,8.92
2023-05-06T04:09:42.108Z,8.98
2023-05-06T04:12:09.176Z,9.06
2023-05-06T04:14:36.425Z,9.15
2023-05-06T04:17:03.894Z,9.25
2023-05-06T04:19:32.213Z,9.39
2023-05-06T04:21:59.207Z,9.50
2023-05-06T04:24:28.595Z,9.60
2023-05-06T04:26:56.333Z,9.61
2023-05-06T04:29:23.623Z,9.69
2023-05-06T04:31:57.938Z,9.77
2023-05-06T04:34:27.882Z,9.84
2023-05-06T04:36:55.441Z,9.94
2023-05-06T04:39:48.833Z,10.00
2023-05-06T04:42:16.353Z,10.07
2023-05-06T04:44:53.420Z,10.17
2023-05-06T04:47:22.846Z,10.24
2023-05-06T04:49:50.611Z,10.30
2023-05-06T04:52:18.110Z,10.33
2023-05-06T04:54:45.565Z,10.36
2023-05-06T04:57:12.923Z,10.38
2023-05-06T04:59:40.090Z,10.46
2023-05-06T05:02:07.208Z,10.52
2023-05-06T05:04:34.507Z,10.61
2023-05-06T05:07:01.592Z,10.69
2023-05-06T05:09:29.640Z,10.77
2023-05-06T05:11:57.302Z,10.87
2023-05-06T05:14:24.406Z,10.96
2023-05-06T05:16:51.642Z,11.09
2023-05-06T05:19:18.916Z,11.46
2023-05-06T05:21:46.619Z,12.02
2023-05-06T05:24:13.753Z,12.60
2023-05-06T05:26:40.768Z,13.27
2023-05-06T05:29:08.192Z,13.99
2023-05-06T05:31:35.488Z,14.77
2023-05-06T05:34:02.749Z,15.43
2023-05-06T05:36:29.795Z,15.65
2023-05-06T05:38:58.114Z,15.47
2023-05-06T05:41:26.948Z,15.36
2023-05-06T05:43:54.330Z,15.35
2023-05-06T05:46:21.694Z,15.55
2023-05-06T05:48:48.813Z,15.87
2023-05-06T05:51:17.021Z,16.31
2023-05-06T05:53:44.472Z,16.73
2023-05-06T05:56:11.866Z,17.18
2023-05-06T05:58:39.017Z,17.42
2023-05-06T06:01:06.214Z,17.64
2023-05-06T06:03:34.306Z,17.66
2023-05-06T06:06:01.531Z,17.52
2023-05-06T06:08:29.920Z,17.48
2023-05-06T06:10:57.478Z,17.21
2023-05-06T06:13:28.977Z,16.93
2023-05-06T06:15:56.680Z,16.82
2023-05-06T06:18:24.305Z,16.67
2023-05-06T06:20:53.299Z,17.07
2023-05-06T06:23:21.170Z,17.78
2023-05-06T06:25:48.150Z,18.32
2023-05-06T06:28:16.174Z,18.85
2023-05-06T06:30:43.678Z,19.14
2023-05-06T06:33:10.581Z,19.35
2023-05-06T06:35:37.681Z,19.48
2023-05-06T06:38:04.649Z,19.46
2023-05-06T06:40:31.754Z,19.53
2023-05-06T06:42:58.704Z,19.69
2023-05-06T06:45:49.444Z,19.67
2023-05-06T06:48:16.628Z,19.67
2023-05-06T06:50:43.576Z,19.89
2023-05-06T06:53:10.983Z,20.02
2023-05-06T06:55:38.065Z,19.83
2023-05-06T06:58:05.110Z,19.69
2023-05-06T07:00:32.367Z,19.71
2023-05-06T07:02:59.270Z,19.77
2023-05-06T07:05:27.158Z,19.52
2023-05-06T07:07:54.495Z,19.09
2023-05-06T07:10:22.119Z,18.84
2023-05-06T07:12:49.049Z,19.00
2023-05-06T07:15:15.964Z,19.19
2023-05-06T07:17:43.180Z,19.11
2023-05-06T07:20:10.641Z,18.38
2023-05-06T07:22:38.007Z,17.41
2023-05-06T07:25:05.278Z,16.69
2023-05-06T07:27:32.372Z,16.10
2023-05-06T07:29:59.231Z,15.91
2023-05-06T07:32:26.406Z,15.96
2023-05-06T07:34:53.279Z,15.85
2023-05-06T07:37:20.091Z,16.01
2023-05-06T07:39:47.027Z,16.52
2023-05-06T07:42:14.526Z,16.60
2023-05-06T07:44:41.574Z,16.31
2023-05-06T07:47:08.572Z,15.91
2023-05-06T07:49:35.778Z,15.40
2023-05-06T07:52:03.681Z,14.85
2023-05-06T07:54:31.850Z,14.83
2023-05-06T07:56:59.317Z,15.46
2023-05-06T07:59:26.396Z,16.23
2023-05-06T08:01:53.329Z,16.46
2023-05-06T08:04:20.268Z,16.43
2023-05-06T08:06:47.778Z,16.22
2023-05-06T08:09:22.234Z,15.89
2023-05-06T08:11:50.183Z,15.71
2023-05-06T08:14:17.067Z,15.44
2023-05-06T08:16:44.004Z,15.14
2023-05-06T08:19:11.090Z,14.87
2023-05-06T08:21:37.992Z,15.07
2023-05-06T08:24:05.104Z,15.69
2023-05-06T08:26:32.026Z,16.24
2023-05-06T08:28:59.621Z,16.75
2023-05-06T08:31:27.010Z,17.14
2023-05-06T08:33:54.813Z,17.36
2023-05-06T08:36:22.460Z,17.54
2023-05-06T08:38:50.962Z,17.50
2023-05-06T08:41:18.792Z,17.20
2023-05-06T08:43:46.656Z,16.89
2023-05-06T08:46:14.007Z,16.52
2023-05-06T08:48:41.241Z,15.91
2023-05-06T08:51:08.554Z,15.50
2023-05-06T08:53:35.857Z,15.30
2023-05-06T08:56:04.896Z,15.15
2023-05-06T08:58:36.056Z,15.02
2023-05-06T09:01:03.110Z,14.90
2023-05-06T09:03:30.534Z,14.75
2023-05-06T09:05:57.789Z,14.88
2023-05-06T09:08:25.389Z,15.24
2023-05-06T09:10:52.302Z,15.33
2023-05-06T09:13:19.706Z,15.27
2023-05-06T09:15:47.674Z,15.47
2023-05-06T09:18:18.181Z,15.66
2023-05-06T09:20:46.436Z,15.73
2023-05-06T09:23:15.738Z,15.51
2023-05-06T09:25:43.226Z,15.37
2023-05-06T09:28:11.278Z,15.37
2023-05-06T09:30:44.453Z,15.22
2023-05-06T09:33:11.493Z,15.08
2023-05-06T09:35:40.012Z,14.88
2023-05-06T09:38:07.553Z,14.80
2023-05-06T09:40:36.077Z,14.89
2023-05-06T09:43:03.329Z,15.10
2023-05-06T09:45:30.887Z,15.30
2023-05-06T09:47:58.676Z,15.33
2023-05-06T09:50:26.464Z,15.15
2023-05-06T09:52:53.395Z,14.91
2023-05-06T09:55:21.008Z,14.70
2023-05-06T09:57:48.636Z,14.48
2023-05-06T10:03:37.468Z,13.98
2023-05-06T10:06:06.222Z,13.77
2023-05-06T10:08:34.092Z,13.61
2023-05-06T10:11:01.896Z,13.49
2023-05-06T10:13:30.049Z,13.60
2023-05-06T10:15:57.028Z,13.82
2023-05-06T10:18:24.072Z,13.82
2023-05-06T10:20:51.773Z,13.81
2023-05-06T10:23:37.907Z,13.85
2023-05-06T10:26:07.740Z,13.91
2023-05-06T10:28:39.062Z,13.92
2023-05-06T10:31:08.982Z,13.95
2023-05-06T10:33:36.326Z,13.76
2023-05-06T10:36:23.097Z,13.48
2023-05-06T10:38:57.278Z,13.45
2023-05-06T10:41:26.207Z,13.60
2023-05-06T10:43:57.067Z,13.73
2023-05-06T10:46:26.423Z,13.69
2023-05-06T10:49:11.420Z,13.71
2023-05-06T10:51:43.146Z,13.58
2023-05-06T10:54:11.527Z,13.44
2023-05-06T10:56:51.325Z,13.39
2023-05-06T10:59:23.949Z,13.28
2023-05-06T11:02:15.374Z,13.12
2023-05-06T11:04:42.797Z,13.05
2023-05-06T11:07:14.436Z,13.06
2023-05-06T11:10:01.486Z,13.10
2023-05-06T11:12:52.015Z,13.03
2023-05-06T11:15:21.622Z,12.96
2023-05-06T11:17:48.667Z,12.92
2023-05-06T11:20:23.228Z,12.93
2023-05-06T11:22:50.291Z,12.97
2023-05-06T11:25:43.338Z,13.00
2023-05-06T11:28:13.899Z,13.04
2023-05-06T11:30:42.388Z,13.06
2023-05-06T11:33:14.724Z,13.10
2023-05-06T11:35:41.919Z,13.08
2023-05-06T11:38:08.993Z,13.03
2023-05-06T11:40:36.788Z,13.02
2023-05-06T11:43:11.543Z,12.90
2023-05-06T11:45:42.414Z,12.85
2023-05-06T11:48:12.461Z,12.75
2023-05-06T11:50:39.612Z,12.53
2023-05-06T11:53:06.994Z,12.40
2023-05-06T11:55:34.525Z,12.39
2023-05-06T11:58:01.778Z,12.45
2023-05-06T12:00:28.995Z,12.48
2023-05-06T12:02:59.398Z,12.49
2023-05-06T12:07:47.916Z,12.56
2023-05-06T12:10:17.329Z,12.66
2023-05-06T12:12:44.513Z,12.67
2023-05-06T12:15:12.041Z,12.56
2023-05-06T12:24:31.549Z,11.97
2023-05-06T12:27:01.774Z,11.96
2023-05-06T12:29:29.124Z,11.97
2023-05-06T12:32:12.056Z,11.92
2023-05-06T12:34:39.935Z,11.86
2023-05-06T12:37:08.813Z,11.87
2023-05-06T12:39:39.593Z,11.91
2023-05-06T12:42:06.778Z,11.89
2023-05-06T12:44:38.970Z,11.92
2023-05-06T12:47:08.368Z,11.98
2023-05-06T12:49:52.665Z,12.07
2023-05-06T12:52:20.885Z,12.16
2023-05-06T12:54:48.359Z,12.18
2023-05-06T12:57:16.150Z,12.15
2023-05-06T12:59:44.074Z,12.15
2023-05-06T13:02:11.899Z,12.16
2023-05-06T13:04:39.696Z,12.22
2023-05-06T13:07:07.047Z,12.32
2023-05-06T13:09:34.320Z,12.34
2023-05-06T13:12:01.463Z,12.45
2023-05-06T13:14:49.275Z,12.62
2023-05-06T13:17:16.763Z,12.70
2023-05-06T13:19:43.998Z,12.75
2023-05-06T13:22:11.142Z,12.72
2023-05-06T13:24:38.979Z,12.67
2023-05-06T13:27:06.086Z,12.54
2023-05-06T13:29:33.321Z,12.38
2023-05-06T13:32:00.895Z,12.11
2023-05-06T13:34:28.116Z,12.00
2023-05-06T13:36:56.818Z,12.01
2023-05-06T13:39:24.092Z,12.02
2023-05-06T13:41:51.381Z,11.90
2023-05-06T13:44:21.833Z,11.76
2023-05-06T13:46:49.275Z,11.73
2023-05-06T13:49:16.856Z,11.66
2023-05-06T13:51:44.075Z,11.49
2023-05-06T13:54:11.017Z,11.34
2023-05-06T13:56:37.944Z,11.15
2023-05-06T13:59:05.036Z,11.05
2023-05-06T14:01:32.345Z,11.03
2023-05-06T14:03:59.354Z,11.05
2023-05-06T14:06:27.861Z,11.02
2023-05-06T14:08:55.923Z,11.01
2023-05-06T14:11:22.945Z,11.00
2023-05-06T14:13:50.833Z,11.02
2023-05-06T14:16:17.982Z,11.00
2023-05-06T14:18:45.197Z,10.97
2023-05-06T14:21:12.349Z,10.94
2023-05-06T14:23:39.752Z,10.96
2023-05-06T14:26:06.859Z,11.00
2023-05-06T14:28:34.775Z,11.02
2023-05-06T14:31:02.110Z,11.06
2023-05-06T14:33:29.230Z,11.03
2023-05-06T14:35:56.175Z,11.04
2023-05-06T14:38:23.234Z,11.01
2023-05-06T14:40:50.882Z,10.97
2023-05-06T14:43:18.450Z,10.95
2023-05-06T14:45:45.451Z,10.92
2023-05-06T14:48:12.722Z,10.88
2023-05-06T14:50:40.301Z,10.87
2023-05-06T14:53:07.183Z,10.88
2023-05-06T14:55:35.555Z,10.89
2023-05-06T14:58:02.625Z,10.80
2023-05-06T15:00:30.023Z,10.73
2023-05-06T15:02:57.225Z,10.67
2023-05-06T15:05:24.541Z,10.64
2023-05-06T15:07:52.298Z,10.63
2023-05-06T15:10:19.646Z,10.58
2023-05-06T15:12:46.821Z,10.55
2023-05-06T15:15:14.315Z,10.50
2023-05-06T15:17:42.127Z,10.43
2023-05-06T15:20:10.139Z,10.40
2023-05-06T15:22:39.360Z,10.43
2023-05-06T15:25:09.417Z,10.44
2023-05-06T15:27:39.591Z,10.44
2023-05-06T15:30:08.218Z,10.40
2023-05-06T15:32:35.614Z,10.42
2023-05-06T15:35:05.096Z,10.49
2023-05-06T15:37:33.787Z,10.55
2023-05-06T15:40:01.052Z,10.61
2023-05-06T15:42:28.081Z,10.68
2023-05-06T15:44:55.115Z,10.75
2023-05-06T15:47:22.034Z,10.76
2023-05-06T15:49:54.518Z,10.69
2023-05-06T15:52:22.692Z,10.56
2023-05-06T15:54:50.101Z,10.44
2023-05-06T15:57:17.662Z,10.36
2023-05-06T15:59:44.740Z,10.33
2023-05-06T16:02:26.951Z,10.28
2023-05-06T16:04:54.879Z,10.22
2023-05-06T16:07:21.990Z,10.23
2023-05-06T16:09:49.912Z,10.22
2023-05-06T16:12:16.868Z,10.21
2023-05-06T16:14:44.289Z,10.21
2023-05-06T16:17:11.215Z,10.23
2023-05-06T16:19:38.248Z,10.25
2023-05-06T16:22:05.279Z,10.25
2023-05-06T16:24:32.527Z,10.21
2023-05-06T16:26:59.612Z,10.15
2023-05-06T16:29:26.549Z,10.08
2023-05-06T16:31:53.556Z,10.00
2023-05-06T16:34:20.686Z,9.93
2023-05-06T16:36:47.762Z,9.86
2023-05-06T16:39:14.768Z,9.80
2023-05-06T16:41:41.729Z,9.75
2023-05-06T16:44:08.833Z,9.68
2023-05-06T16:46:35.792Z,9.64
2023-05-06T16:49:03.889Z,9.60
2023-05-06T16:51:31.561Z,9.54
2023-05-06T16:56:30.280Z,9.48
2023-05-06T16:59:04.503Z,9.42
2023-05-06T17:01:32.010Z,9.35
2023-05-06T17:04:27.132Z,9.28
2023-05-06T17:06:55.163Z,9.22
2023-05-06T17:09:22.444Z,9.16
2023-05-06T17:11:49.852Z,9.13
2023-05-06T17:14:17.262Z,9.08
2023-05-06T17:16:45.239Z,9.02
2023-05-06T17:19:12.400Z,8.98
2023-05-06T17:21:39.648Z,8.92
2023-05-06T17:24:06.775Z,8.89
2023-05-06T17:26:34.355Z,8.84
2023-05-06T17:29:01.319Z,8.78
2023-05-06T17:31:28.527Z,8.70
2023-05-06T17:33:56.503Z,8.66
2023-05-06T17:36:23.695Z,8.62
2023-05-06T17:38:52.679Z,8.57
2023-05-06T17:41:19.648Z,8.51
2023-05-06T17:43:47.510Z,8.43
2023-05-06T17:46:14.669Z,8.41
2023-05-06T17:48:41.683Z,8.39
2023-05-06T17:51:08.849Z,8.37
2023-05-06T17:53:36.260Z,8.34
2023-05-06T17:56:04.075Z,8.32
2023-05-06T17:58:31.553Z,8.29
2023-05-06T18:00:58.619Z,8.28
2023-05-06T18:03:25.742Z,8.25
2023-05-06T18:05:52.846Z,8.22
2023-05-06T18:08:19.886Z,8.17
2023-05-06T18:10:46.798Z,8.13
2023-05-06T18:13:14.101Z,8.09
2023-05-06T18:15:41.075Z,8.05
2023-05-06T18:18:08.662Z,8.02
2023-05-06T18:20:37.394Z,8.00
2023-05-06T18:23:04.359Z,7.98
2023-05-06T18:25:32.222Z,7.96
2023-05-06T18:27:59.268Z,7.93
2023-05-06T18:30:26.376Z,7.90
2023-05-06T18:32:55.226Z,7.85
2023-05-06T18:35:23.550Z,7.80
2023-05-06T18:37:50.545Z,7.76
2023-05-06T18:40:17.954Z,7.71
2023-05-06T18:42:47.179Z,7.63
2023-05-06T18:45:14.175Z,7.54
2023-05-06T18:47:42.958Z,7.44
2023-05-06T18:50:10.172Z,7.38
2023-05-06T18:52:37.717Z,7.34
2023-05-06T18:55:05.613Z,7.30
2023-05-06T18:57:32.873Z,7.24
2023-05-06T18:59:59.856Z,7.19
2023-05-06T19:02:27.232Z,7.10
2023-05-06T19:04:54.117Z,7.06
2023-05-06T19:07:21.202Z,7.02
2023-05-06T19:09:48.859Z,6.98
2023-05-06T19:12:16.070Z,6.94
2023-05-06T19:14:42.995Z,6.90
2023-05-06T19:17:11.394Z,6.89
2023-05-06T19:19:38.475Z,6.86
2023-05-06T19:22:05.369Z,6.82
2023-05-06T19:24:32.472Z,6.77
2023-05-06T19:26:59.412Z,6.73
2023-05-06T19:29:26.508Z,6.69
2023-05-06T19:31:53.490Z,6.64
2023-05-06T19:34:20.502Z,6.61
2023-05-06T19:36:47.565Z,6.58
2023-05-06T19:39:14.692Z,6.54
2023-05-06T19:41:41.847Z,6.50
2023-05-06T19:44:08.658Z,6.45
2023-05-06T19:46:36.457Z,6.38
2023-05-06T19:49:03.719Z,6.32
2023-05-06T19:51:30.606Z,6.26
2023-05-06T19:53:57.668Z,6.23
2023-05-06T19:56:24.643Z,6.22
2023-05-06T19:58:51.648Z,6.20
2023-05-06T20:01:22.578Z,6.16
2023-05-06T20:03:49.792Z,6.15
2023-05-06T20:06:17.228Z,6.14
2023-05-06T20:08:44.131Z,6.13
2023-05-06T20:11:11.381Z,6.11
2023-05-06T20:13:38.908Z,6.10
2023-05-06T20:16:06.210Z,6.08
2023-05-06T20:18:34.072Z,6.06
2023-05-06T20:21:01.140Z,6.02
2023-05-06T20:23:28.079Z,6.00
2023-05-06T20:25:55.264Z,5.98
2023-05-06T20:28:22.253Z,5.95
2023-05-06T20:30:49.161Z,5.90
2023-05-06T20:33:16.718Z,5.83
2023-05-06T20:35:43.855Z,5.79
2023-05-06T20:38:11.072Z,5.73
2023-05-06T20:40:38.711Z,5.69
2023-05-06T20:43:05.922Z,5.63
2023-05-06T20:45:33.454Z,5.59
2023-05-06T20:48:00.756Z,5.58
2023-05-06T20:50:30.052Z,5.56
2023-05-06T20:52:57.213Z,5.51
2023-05-06T20:55:25.330Z,5.47
2023-05-06T20:57:52.648Z,5.43
2023-05-06T21:00:19.901Z,5.39
2023-05-06T21:02:46.894Z,5.34
2023-05-06T21:05:14.273Z,5.30
2023-05-06T21:07:41.650Z,5.28
2023-05-06T21:10:09.677Z,5.26
2023-05-06T21:12:37.296Z,5.21
2023-05-06T21:15:04.960Z,5.19
2023-05-06T21:17:32.227Z,5.15
2023-05-06T21:19:59.196Z,5.13
2023-05-06T21:22:26.428Z,5.08
2023-05-06T21:24:53.546Z,5.04
2023-05-06T21:27:20.489Z,5.00
2023-05-06T21:29:47.586Z,4.97
2023-05-06T21:32:14.809Z,4.94
2023-05-06T21:34:41.778Z,4.90
2023-05-06T21:37:09.725Z,4.88
2023-05-06T21:39:36.624Z,4.84
2023-05-06T21:42:03.560Z,4.80
2023-05-06T21:44:30.688Z,4.76
2023-05-06T21:46:57.702Z,4.73
2023-05-06T21:49:24.686Z,4.68
2023-05-06T21:51:51.578Z,4.66
2023-05-06T21:54:18.711Z,4.65
2023-05-06T21:56:45.689Z,4.60
2023-05-06T21:59:13.350Z,4.57
2023-05-06T22:01:40.299Z,4.54
2023-05-06T22:04:11.577Z,4.50
2023-05-06T22:06:39.479Z,4.48
2023-05-06T22:09:09.432Z,4.45
2023-05-06T22:11:38.051Z,4.39
2023-05-06T22:14:06.619Z,4.33
2023-05-06T22:16:38.077Z,4.28
2023-05-06T22:19:05.890Z,4.24
2023-05-06T22:21:34.699Z,4.22
2023-05-06T22:24:01.600Z,4.20
2023-05-06T22:26:28.693Z,4.16
2023-05-06T22:28:56.361Z,4.13
2023-05-06T22:31:24.687Z,4.10
2023-05-06T22:33:57.971Z,4.08
2023-05-06T22:36:29.558Z,4.09
2023-05-06T22:38:56.620Z,4.11
2023-05-06T22:41:23.586Z,4.12
2023-05-06T22:43:50.705Z,4.11
2023-05-06T22:46:17.780Z,4.10
2023-05-06T22:48:45.044Z,4.08
2023-05-06T22:51:12.432Z,4.05
2023-05-06T22:53:39.330Z,3.99
2023-05-06T22:56:06.790Z,3.94
2023-05-06T22:58:33.671Z,3.93
2023-05-06T23:01:01.920Z,3.92
2023-05-06T23:03:28.990Z,3.89
2023-05-06T23:05:56.070Z,3.90
2023-05-06T23:08:22.958Z,3.91
2023-05-06T23:10:49.821Z,3.94
2023-05-06T23:13:16.970Z,3.95
2023-05-06T23:15:43.798Z,3.95
2023-05-06T23:18:11.638Z,3.91
2023-05-06T23:20:38.607Z,3.87
2023-05-06T23:23:05.483Z,3.83
2023-05-06T23:25:32.821Z,3.81
2023-05-06T23:27:59.702Z,3.80
2023-05-06T23:30:26.565Z,3.79
2023-05-06T23:32:53.560Z,3.74
2023-05-06T23:35:20.503Z,3.68
2023-05-06T23:37:47.730Z,3.69
2023-05-06T23:40:14.782Z,3.71
2023-05-06T23:42:41.921Z,3.72
2023-05-06T23:45:09.772Z,3.72
2023-05-06T23:47:38.084Z,3.68
2023-05-06T23:50:05.530Z,3.64
2023-05-06T23:52:32.514Z,3.63
2023-05-06T23:54:59.390Z,3.59
2023-05-06T23:57:26.377Z,3.55
2023-05-06T23:59:53.229Z,3.51
